sensor_id;sensor_type;location;lat;lon;timestamp;temperature;humidity
10419;DHT22;5256;48.728;9.140;2023-10-09T00:02:11;10.70;99.90
10419;DHT22;5256;48.728;9.140;2023-10-09T00:04:40;10.70;99.90
10419;DHT22;5256;48.728;9.140;2023-10-09T00:07:11;10.70;99.90
10419;DHT22;5256;48.728;9.140;2023-10-09T00:09:37;10.70;99.90
10419;DHT22;5256;48.728;9.140;2023-10-09T00:12:16;10.70;99.90
10419;DHT22;5256;48.728;9.140;2023-10-09T00:14:42;10.70;99.90
10419;DHT22;5256;48.728;9.140;2023-10-09T00:17:14;10.80;99.90
10419;DHT22;5256;48.728;9.140;2023-10-09T00:19:40;10.70;99.90
10419;DHT22;5256;48.728;9.140;2023-10-09T00:22:08;10.70;99.90
10419;DHT22;5256;48.728;9.140;2023-10-09T00:24:45;10.80;99.90
10419;DHT22;5256;48.728;9.140;2023-10-09T00:27:15;10.70;99.90
10419;DHT22;5256;48.728;9.140;2023-10-09T00:29:44;10.70;99.90
10419;DHT22;5256;48.728;9.140;2023-10-09T00:32:15;10.70;99.90
10419;DHT22;5256;48.728;9.140;2023-10-09T00:34:58;10.70;99.90
10419;DHT22;5256;48.728;9.140;2023-10-09T00:37:38;10.80;99.90
10419;DHT22;5256;48.728;9.140;2023-10-09T00:40:05;10.80;99.90
10419;DHT22;5256;48.728;9.140;2023-10-09T00:42:38;10.90;99.90
10419;DHT22;5256;48.728;9.140;2023-10-09T00:45:04;10.90;99.90
10419;DHT22;5256;48.728;9.140;2023-10-09T00:47:32;10.90;99.90
10419;DHT22;5256;48.728;9.140;2023-10-09T00:50:06;10.80;99.90
10419;DHT22;5256;48.728;9.140;2023-10-09T00:52:52;10.80;99.90
10419;DHT22;5256;48.728;9.140;2023-10-09T00:55:27;10.80;99.90
10419;DHT22;5256;48.728;9.140;2023-10-09T00:58:03;10.90;99.90
10419;DHT22;5256;48.728;9.140;2023-10-09T01:00:35;11.00;99.90
10419;DHT22;5256;48.728;9.140;2023-10-09T01:03:11;11.00;99.90
10419;DHT22;5256;48.728;9.140;2023-10-09T01:05:51;11.00;99.90
10419;DHT22;5256;48.728;9.140;2023-10-09T01:08:39;11.00;99.90
10419;DHT22;5256;48.728;9.140;2023-10-09T01:11:10;10.90;99.90
10419;DHT22;5256;48.728;9.140;2023-10-09T01:13:45;10.90;99.90
10419;DHT22;5256;48.728;9.140;2023-10-09T01:16:14;10.90;99.90
10419;DHT22;5256;48.728;9.140;2023-10-09T01:18:50;10.90;99.90
10419;DHT22;5256;48.728;9.140;2023-10-09T01:21:17;10.90;99.90
10419;DHT22;5256;48.728;9.140;2023-10-09T01:23:45;11.00;99.90
10419;DHT22;5256;48.728;9.140;2023-10-09T01:29:17;11.10;99.90
10419;DHT22;5256;48.728;9.140;2023-10-09T01:31:48;11.20;99.90
10419;DHT22;5256;48.728;9.140;2023-10-09T01:36:53;11.20;99.90
10419;DHT22;5256;48.728;9.140;2023-10-09T01:39:30;11.30;99.90
10419;DHT22;5256;48.728;9.140;2023-10-09T01:41:56;11.30;99.90
10419;DHT22;5256;48.728;9.140;2023-10-09T01:44:26;11.40;99.90
10419;DHT22;5256;48.728;9.140;2023-10-09T01:46:53;11.50;99.90
10419;DHT22;5256;48.728;9.140;2023-10-09T01:49:22;11.50;99.90
10419;DHT22;5256;48.728;9.140;2023-10-09T01:51:55;11.50;99.90
10419;DHT22;5256;48.728;9.140;2023-10-09T01:54:21;11.60;99.90
10419;DHT22;5256;48.728;9.140;2023-10-09T01:57:03;11.60;99.90
10419;DHT22;5256;48.728;9.140;2023-10-09T01:59:35;11.60;99.90
10419;DHT22;5256;48.728;9.140;2023-10-09T02:02:04;11.60;99.90
10419;DHT22;5256;48.728;9.140;2023-10-09T02:04:53;11.60;99.90
10419;DHT22;5256;48.728;9.140;2023-10-09T02:07:20;11.60;99.90
10419;DHT22;5256;48.728;9.140;2023-10-09T02:09:54;11.70;99.90
10419;DHT22;5256;48.728;9.140;2023-10-09T02:12:19;11.70;99.90
10419;DHT22;5256;48.728;9.140;2023-10-09T02:14:47;11.70;99.90
10419;DHT22;5256;48.728;9.140;2023-10-09T02:17:13;11.60;99.90
10419;DHT22;5256;48.728;9.140;2023-10-09T02:19:45;11.60;99.90
10419;DHT22;5256;48.728;9.140;2023-10-09T02:22:15;11.60;99.90
10419;DHT22;5256;48.728;9.140;2023-10-09T02:24:42;11.50;99.90
10419;DHT22;5256;48.728;9.140;2023-10-09T02:27:13;11.50;99.90
10419;DHT22;5256;48.728;9.140;2023-10-09T02:29:46;11.50;99.90
10419;DHT22;5256;48.728;9.140;2023-10-09T02:32:13;11.40;99.90
10419;DHT22;5256;48.728;9.140;2023-10-09T02:34:40;11.50;99.90
10419;DHT22;5256;48.728;9.140;2023-10-09T02:37:05;11.50;99.90
10419;DHT22;5256;48.728;9.140;2023-10-09T02:39:31;11.50;99.90
10419;DHT22;5256;48.728;9.140;2023-10-09T02:42:18;11.40;99.90
10419;DHT22;5256;48.728;9.140;2023-10-09T02:44:49;11.40;99.90
10419;DHT22;5256;48.728;9.140;2023-10-09T02:47:19;11.50;99.90
10419;DHT22;5256;48.728;9.140;2023-10-09T02:49:49;11.40;99.90
10419;DHT22;5256;48.728;9.140;2023-10-09T02:52:16;11.50;99.90
10419;DHT22;5256;48.728;9.140;2023-10-09T02:54:47;11.50;99.90
10419;DHT22;5256;48.728;9.140;2023-10-09T02:57:13;11.50;99.90
10419;DHT22;5256;48.728;9.140;2023-10-09T02:59:49;11.50;99.90
10419;DHT22;5256;48.728;9.140;2023-10-09T03:02:18;11.50;99.90
10419;DHT22;5256;48.728;9.140;2023-10-09T03:04:44;11.50;99.90
10419;DHT22;5256;48.728;9.140;2023-10-09T03:07:09;11.50;99.90
10419;DHT22;5256;48.728;9.140;2023-10-09T03:09:39;11.50;99.90
10419;DHT22;5256;48.728;9.140;2023-10-09T03:12:06;11.50;99.90
10419;DHT22;5256;48.728;9.140;2023-10-09T03:14:37;11.60;99.90
10419;DHT22;5256;48.728;9.140;2023-10-09T03:17:10;11.60;99.90
10419;DHT22;5256;48.728;9.140;2023-10-09T03:19:38;11.70;99.90
10419;DHT22;5256;48.728;9.140;2023-10-09T03:22:05;11.70;99.90
10419;DHT22;5256;48.728;9.140;2023-10-09T03:24:34;11.70;99.90
10419;DHT22;5256;48.728;9.140;2023-10-09T03:27:00;11.80;99.90
10419;DHT22;5256;48.728;9.140;2023-10-09T03:29:26;11.80;99.90
10419;DHT22;5256;48.728;9.140;2023-10-09T03:31:52;11.90;99.90
10419;DHT22;5256;48.728;9.140;2023-10-09T03:34:19;12.00;99.90
10419;DHT22;5256;48.728;9.140;2023-10-09T03:36:48;12.00;99.90
10419;DHT22;5256;48.728;9.140;2023-10-09T03:39:14;12.00;99.90
10419;DHT22;5256;48.728;9.140;2023-10-09T03:41:58;12.00;99.90
10419;DHT22;5256;48.728;9.140;2023-10-09T03:44:25;11.90;99.90
10419;DHT22;5256;48.728;9.140;2023-10-09T03:46:54;11.90;99.90
10419;DHT22;5256;48.728;9.140;2023-10-09T03:49:19;11.80;99.90
10419;DHT22;5256;48.728;9.140;2023-10-09T03:51:49;11.80;99.90
10419;DHT22;5256;48.728;9.140;2023-10-09T03:54:15;11.80;99.90
10419;DHT22;5256;48.728;9.140;2023-10-09T03:56:41;11.80;99.90
10419;DHT22;5256;48.728;9.140;2023-10-09T03:59:06;11.80;99.90
10419;DHT22;5256;48.728;9.140;2023-10-09T04:01:36;11.80;99.90
10419;DHT22;5256;48.728;9.140;2023-10-09T04:04:05;11.80;99.90
10419;DHT22;5256;48.728;9.140;2023-10-09T04:06:33;11.90;99.90
10419;DHT22;5256;48.728;9.140;2023-10-09T04:09:09;11.90;99.90
10419;DHT22;5256;48.728;9.140;2023-10-09T04:11:55;12.00;99.90
10419;DHT22;5256;48.728;9.140;2023-10-09T04:14:41;12.00;99.90
10419;DHT22;5256;48.728;9.140;2023-10-09T04:17:16;12.00;99.90
10419;DHT22;5256;48.728;9.140;2023-10-09T04:19:47;11.90;99.90
10419;DHT22;5256;48.728;9.140;2023-10-09T04:22:31;11.90;99.90
10419;DHT22;5256;48.728;9.140;2023-10-09T04:25:04;11.90;99.90
10419;DHT22;5256;48.728;9.140;2023-10-09T04:27:33;11.90;99.90
10419;DHT22;5256;48.728;9.140;2023-10-09T04:30:02;11.80;99.90
10419;DHT22;5256;48.728;9.140;2023-10-09T04:32:28;11.90;99.90
10419;DHT22;5256;48.728;9.140;2023-10-09T04:34:54;12.00;99.90
10419;DHT22;5256;48.728;9.140;2023-10-09T04:37:42;11.90;99.90
10419;DHT22;5256;48.728;9.140;2023-10-09T04:40:10;11.80;99.90
10419;DHT22;5256;48.728;9.140;2023-10-09T04:42:59;11.80;99.90
10419;DHT22;5256;48.728;9.140;2023-10-09T04:45:25;11.80;99.90
10419;DHT22;5256;48.728;9.140;2023-10-09T04:48:09;11.70;99.90
10419;DHT22;5256;48.728;9.140;2023-10-09T04:50:36;11.70;99.90
10419;DHT22;5256;48.728;9.140;2023-10-09T04:53:02;11.60;99.90
10419;DHT22;5256;48.728;9.140;2023-10-09T04:55:48;11.60;99.90
10419;DHT22;5256;48.728;9.140;2023-10-09T04:58:23;11.60;99.90
10419;DHT22;5256;48.728;9.140;2023-10-09T05:00:50;11.60;99.90
10419;DHT22;5256;48.728;9.140;2023-10-09T05:03:24;11.70;99.90
10419;DHT22;5256;48.728;9.140;2023-10-09T05:05:55;11.70;99.90
10419;DHT22;5256;48.728;9.140;2023-10-09T05:08:25;11.70;99.90
10419;DHT22;5256;48.728;9.140;2023-10-09T05:10:52;11.70;99.90
10419;DHT22;5256;48.728;9.140;2023-10-09T05:13:32;11.80;99.90
10419;DHT22;5256;48.728;9.140;2023-10-09T05:18:30;11.80;99.90
10419;DHT22;5256;48.728;9.140;2023-10-09T05:21:03;11.90;99.90
10419;DHT22;5256;48.728;9.140;2023-10-09T05:23:38;11.90;99.90
10419;DHT22;5256;48.728;9.140;2023-10-09T05:26:17;11.80;99.90
10419;DHT22;5256;48.728;9.140;2023-10-09T05:29:01;11.80;99.90
10419;DHT22;5256;48.728;9.140;2023-10-09T05:31:45;11.80;99.90
10419;DHT22;5256;48.728;9.140;2023-10-09T05:34:21;11.70;99.90
10419;DHT22;5256;48.728;9.140;2023-10-09T05:36:47;11.80;99.90
10419;DHT22;5256;48.728;9.140;2023-10-09T05:39:13;11.80;99.90
10419;DHT22;5256;48.728;9.140;2023-10-09T05:42:02;11.80;99.90
10419;DHT22;5256;48.728;9.140;2023-10-09T05:44:35;11.90;99.90
10419;DHT22;5256;48.728;9.140;2023-10-09T05:47:19;11.90;99.90
10419;DHT22;5256;48.728;9.140;2023-10-09T05:49:54;11.90;99.90
10419;DHT22;5256;48.728;9.140;2023-10-09T05:52:22;11.90;99.90
10419;DHT22;5256;48.728;9.140;2023-10-09T05:55:04;12.00;99.90
10419;DHT22;5256;48.728;9.140;2023-10-09T05:58:05;12.00;99.90
10419;DHT22;5256;48.728;9.140;2023-10-09T06:00:50;12.10;99.90
10419;DHT22;5256;48.728;9.140;2023-10-09T06:03:31;12.10;99.90
10419;DHT22;5256;48.728;9.140;2023-10-09T06:06:14;12.20;99.90
10419;DHT22;5256;48.728;9.140;2023-10-09T06:09:05;12.20;99.90
10419;DHT22;5256;48.728;9.140;2023-10-09T06:11:43;12.30;99.90
10419;DHT22;5256;48.728;9.140;2023-10-09T06:14:18;12.40;99.90
10419;DHT22;5256;48.728;9.140;2023-10-09T06:16:52;12.50;99.90
10419;DHT22;5256;48.728;9.140;2023-10-09T06:19:36;12.70;99.90
10419;DHT22;5256;48.728;9.140;2023-10-09T06:22:09;12.80;99.90
10419;DHT22;5256;48.728;9.140;2023-10-09T06:24:38;12.90;99.90
10419;DHT22;5256;48.728;9.140;2023-10-09T06:27:24;12.90;99.90
10419;DHT22;5256;48.728;9.140;2023-10-09T06:29:52;13.00;99.90
10419;DHT22;5256;48.728;9.140;2023-10-09T06:32:37;13.10;99.90
10419;DHT22;5256;48.728;9.140;2023-10-09T06:35:03;13.20;99.90
10419;DHT22;5256;48.728;9.140;2023-10-09T06:37:46;13.30;99.90
10419;DHT22;5256;48.728;9.140;2023-10-09T06:43:05;13.40;99.90
10419;DHT22;5256;48.728;9.140;2023-10-09T06:45:35;13.50;99.90
10419;DHT22;5256;48.728;9.140;2023-10-09T06:48:13;13.60;99.90
10419;DHT22;5256;48.728;9.140;2023-10-09T06:51:01;13.70;99.90
10419;DHT22;5256;48.728;9.140;2023-10-09T06:53:38;13.80;99.90
10419;DHT22;5256;48.728;9.140;2023-10-09T06:56:27;13.80;99.90
10419;DHT22;5256;48.728;9.140;2023-10-09T06:59:06;13.90;99.90
10419;DHT22;5256;48.728;9.140;2023-10-09T07:01:43;14.00;99.90
10419;DHT22;5256;48.728;9.140;2023-10-09T07:04:09;14.20;99.90
10419;DHT22;5256;48.728;9.140;2023-10-09T07:06:48;14.30;99.90
10419;DHT22;5256;48.728;9.140;2023-10-09T07:09:14;14.40;99.90
10419;DHT22;5256;48.728;9.140;2023-10-09T07:11:50;14.40;99.90
10419;DHT22;5256;48.728;9.140;2023-10-09T07:14:23;14.40;99.90
10419;DHT22;5256;48.728;9.140;2023-10-09T07:19:26;14.50;99.90
10419;DHT22;5256;48.728;9.140;2023-10-09T07:22:07;14.60;99.90
10419;DHT22;5256;48.728;9.140;2023-10-09T07:24:45;14.70;99.90
10419;DHT22;5256;48.728;9.140;2023-10-09T07:27:50;14.80;99.90
10419;DHT22;5256;48.728;9.140;2023-10-09T07:30:18;14.90;99.90
10419;DHT22;5256;48.728;9.140;2023-10-09T07:33:00;15.00;99.90
10419;DHT22;5256;48.728;9.140;2023-10-09T07:35:45;15.20;99.90
10419;DHT22;5256;48.728;9.140;2023-10-09T07:38:20;15.30;99.90
10419;DHT22;5256;48.728;9.140;2023-10-09T07:40:54;15.40;99.90
10419;DHT22;5256;48.728;9.140;2023-10-09T07:43:22;15.50;99.90
10419;DHT22;5256;48.728;9.140;2023-10-09T07:46:20;15.60;99.90
10419;DHT22;5256;48.728;9.140;2023-10-09T07:49:05;15.70;99.90
10419;DHT22;5256;48.728;9.140;2023-10-09T07:51:46;15.80;99.90
10419;DHT22;5256;48.728;9.140;2023-10-09T07:54:13;15.90;99.90
10419;DHT22;5256;48.728;9.140;2023-10-09T07:56:57;16.00;99.90
10419;DHT22;5256;48.728;9.140;2023-10-09T07:59:34;16.10;99.90
10419;DHT22;5256;48.728;9.140;2023-10-09T08:02:07;16.20;99.90
10419;DHT22;5256;48.728;9.140;2023-10-09T08:04:39;16.20;99.90
10419;DHT22;5256;48.728;9.140;2023-10-09T08:07:14;16.30;99.90
10419;DHT22;5256;48.728;9.140;2023-10-09T08:10:06;16.40;99.90
10419;DHT22;5256;48.728;9.140;2023-10-09T08:12:45;16.60;99.90
10419;DHT22;5256;48.728;9.140;2023-10-09T08:15:23;16.80;99.90
10419;DHT22;5256;48.728;9.140;2023-10-09T08:17:56;17.00;99.90
10419;DHT22;5256;48.728;9.140;2023-10-09T08:20:25;17.20;99.90
10419;DHT22;5256;48.728;9.140;2023-10-09T08:22:52;17.40;99.90
10419;DHT22;5256;48.728;9.140;2023-10-09T08:25:21;17.60;99.90
10419;DHT22;5256;48.728;9.140;2023-10-09T08:27:56;17.80;99.90
10419;DHT22;5256;48.728;9.140;2023-10-09T08:30:48;18.00;99.90
10419;DHT22;5256;48.728;9.140;2023-10-09T08:33:31;18.20;99.90
10419;DHT22;5256;48.728;9.140;2023-10-09T08:36:00;18.40;99.90
10419;DHT22;5256;48.728;9.140;2023-10-09T08:38:33;18.60;99.90
10419;DHT22;5256;48.728;9.140;2023-10-09T08:41:07;18.70;99.90
10419;DHT22;5256;48.728;9.140;2023-10-09T08:43:38;18.90;99.90
10419;DHT22;5256;48.728;9.140;2023-10-09T08:46:05;19.00;99.90
10419;DHT22;5256;48.728;9.140;2023-10-09T08:48:31;19.10;99.90
10419;DHT22;5256;48.728;9.140;2023-10-09T08:50:57;19.10;99.90
10419;DHT22;5256;48.728;9.140;2023-10-09T08:53:24;19.30;99.90
10419;DHT22;5256;48.728;9.140;2023-10-09T08:55:50;19.40;99.90
10419;DHT22;5256;48.728;9.140;2023-10-09T08:58:17;19.50;99.90
10419;DHT22;5256;48.728;9.140;2023-10-09T09:00:51;19.40;99.90
10419;DHT22;5256;48.728;9.140;2023-10-09T09:03:18;19.50;99.90
10419;DHT22;5256;48.728;9.140;2023-10-09T09:05:46;19.50;99.90
10419;DHT22;5256;48.728;9.140;2023-10-09T09:08:25;19.70;99.90
10419;DHT22;5256;48.728;9.140;2023-10-09T09:11:01;19.90;99.90
10419;DHT22;5256;48.728;9.140;2023-10-09T09:14:06;20.00;99.90
10419;DHT22;5256;48.728;9.140;2023-10-09T09:16:40;20.10;99.90
10419;DHT22;5256;48.728;9.140;2023-10-09T09:19:09;20.20;99.90
10419;DHT22;5256;48.728;9.140;2023-10-09T09:21:37;20.30;99.90
10419;DHT22;5256;48.728;9.140;2023-10-09T09:24:13;20.40;99.90
10419;DHT22;5256;48.728;9.140;2023-10-09T09:27:03;20.50;99.90
10419;DHT22;5256;48.728;9.140;2023-10-09T09:29:45;20.50;99.90
10419;DHT22;5256;48.728;9.140;2023-10-09T09:32:27;20.70;99.90
10419;DHT22;5256;48.728;9.140;2023-10-09T09:35:01;20.80;99.90
10419;DHT22;5256;48.728;9.140;2023-10-09T09:37:31;20.90;99.90
10419;DHT22;5256;48.728;9.140;2023-10-09T09:40:16;21.10;99.90
10419;DHT22;5256;48.728;9.140;2023-10-09T09:42:58;21.20;99.90
10419;DHT22;5256;48.728;9.140;2023-10-09T09:45:38;21.30;99.90
10419;DHT22;5256;48.728;9.140;2023-10-09T09:48:07;21.50;99.90
10419;DHT22;5256;48.728;9.140;2023-10-09T09:50:36;21.60;99.90
10419;DHT22;5256;48.728;9.140;2023-10-09T09:53:10;21.60;99.90
10419;DHT22;5256;48.728;9.140;2023-10-09T09:55:41;21.60;99.90
10419;DHT22;5256;48.728;9.140;2023-10-09T09:58:11;21.50;99.90
10419;DHT22;5256;48.728;9.140;2023-10-09T10:00:45;21.50;99.90
10419;DHT22;5256;48.728;9.140;2023-10-09T10:03:19;21.60;99.90
10419;DHT22;5256;48.728;9.140;2023-10-09T10:05:45;21.80;99.90
10419;DHT22;5256;48.728;9.140;2023-10-09T10:08:19;21.90;99.90
10419;DHT22;5256;48.728;9.140;2023-10-09T10:10:46;21.90;99.90
10419;DHT22;5256;48.728;9.140;2023-10-09T10:16:14;22.20;99.90
10419;DHT22;5256;48.728;9.140;2023-10-09T10:18:58;22.50;99.90
10419;DHT22;5256;48.728;9.140;2023-10-09T10:21:47;22.60;99.90
10419;DHT22;5256;48.728;9.140;2023-10-09T10:33:00;23.30;99.90
10419;DHT22;5256;48.728;9.140;2023-10-09T10:35:35;23.50;99.90
10419;DHT22;5256;48.728;9.140;2023-10-09T10:38:31;23.70;99.90
10419;DHT22;5256;48.728;9.140;2023-10-09T10:41:12;23.90;99.90
10419;DHT22;5256;48.728;9.140;2023-10-09T10:43:43;24.10;99.90
10419;DHT22;5256;48.728;9.140;2023-10-09T10:46:19;24.00;99.90
10419;DHT22;5256;48.728;9.140;2023-10-09T10:49:05;24.10;99.20
10419;DHT22;5256;48.728;9.140;2023-10-09T10:51:41;24.00;99.40
10419;DHT22;5256;48.728;9.140;2023-10-09T10:54:20;23.80;98.70
10419;DHT22;5256;48.728;9.140;2023-10-09T10:56:59;23.50;98.50
10419;DHT22;5256;48.728;9.140;2023-10-09T10:59:32;23.30;99.40
10419;DHT22;5256;48.728;9.140;2023-10-09T11:02:10;23.20;99.00
10419;DHT22;5256;48.728;9.140;2023-10-09T11:04:36;23.20;99.30
10419;DHT22;5256;48.728;9.140;2023-10-09T11:07:02;23.30;99.20
10419;DHT22;5256;48.728;9.140;2023-10-09T11:09:49;23.30;99.60
10419;DHT22;5256;48.728;9.140;2023-10-09T11:15:13;23.30;99.90
10419;DHT22;5256;48.728;9.140;2023-10-09T11:18:08;23.60;99.90
10419;DHT22;5256;48.728;9.140;2023-10-09T11:20:34;23.80;99.90
10419;DHT22;5256;48.728;9.140;2023-10-09T11:23:01;23.90;99.90
10419;DHT22;5256;48.728;9.140;2023-10-09T11:25:41;24.00;99.20
10419;DHT22;5256;48.728;9.140;2023-10-09T11:28:20;24.10;99.90
10419;DHT22;5256;48.728;9.140;2023-10-09T11:31:07;24.30;99.30
10419;DHT22;5256;48.728;9.140;2023-10-09T11:34:02;24.40;98.00
10419;DHT22;5256;48.728;9.140;2023-10-09T11:36:34;24.40;97.90
10419;DHT22;5256;48.728;9.140;2023-10-09T11:39:01;24.30;97.10
10419;DHT22;5256;48.728;9.140;2023-10-09T11:41:42;24.20;97.00
10419;DHT22;5256;48.728;9.140;2023-10-09T11:44:08;23.90;96.50
10419;DHT22;5256;48.728;9.140;2023-10-09T11:47:00;23.70;96.90
10419;DHT22;5256;48.728;9.140;2023-10-09T11:49:55;23.50;94.90
10419;DHT22;5256;48.728;9.140;2023-10-09T11:52:31;23.40;96.40
10419;DHT22;5256;48.728;9.140;2023-10-09T11:55:01;23.20;94.40
10419;DHT22;5256;48.728;9.140;2023-10-09T11:57:28;23.10;93.80
10419;DHT22;5256;48.728;9.140;2023-10-09T12:00:01;23.10;92.70
10419;DHT22;5256;48.728;9.140;2023-10-09T12:02:28;23.00;91.30
10419;DHT22;5256;48.728;9.140;2023-10-09T12:04:54;23.00;90.50
10419;DHT22;5256;48.728;9.140;2023-10-09T12:07:24;23.10;90.80
10419;DHT22;5256;48.728;9.140;2023-10-09T12:09:50;23.20;90.20
10419;DHT22;5256;48.728;9.140;2023-10-09T12:12:21;23.30;89.60
10419;DHT22;5256;48.728;9.140;2023-10-09T12:14:51;23.40;90.40
10419;DHT22;5256;48.728;9.140;2023-10-09T12:17:18;23.50;90.50
10419;DHT22;5256;48.728;9.140;2023-10-09T12:19:44;23.60;90.20
10419;DHT22;5256;48.728;9.140;2023-10-09T12:22:09;23.80;86.70
10419;DHT22;5256;48.728;9.140;2023-10-09T12:24:41;24.00;85.70
10419;DHT22;5256;48.728;9.140;2023-10-09T12:27:09;24.30;86.10
10419;DHT22;5256;48.728;9.140;2023-10-09T12:29:37;24.60;84.70
10419;DHT22;5256;48.728;9.140;2023-10-09T12:32:02;24.70;83.40
10419;DHT22;5256;48.728;9.140;2023-10-09T12:34:29;24.80;78.40
10419;DHT22;5256;48.728;9.140;2023-10-09T12:36:59;24.80;80.00
10419;DHT22;5256;48.728;9.140;2023-10-09T12:39:27;25.00;77.80
10419;DHT22;5256;48.728;9.140;2023-10-09T12:42:02;25.20;77.50
10419;DHT22;5256;48.728;9.140;2023-10-09T12:44:35;25.20;77.40
10419;DHT22;5256;48.728;9.140;2023-10-09T12:47:08;25.40;79.40
10419;DHT22;5256;48.728;9.140;2023-10-09T12:49:36;25.60;81.80
10419;DHT22;5256;48.728;9.140;2023-10-09T12:52:07;25.70;80.70
10419;DHT22;5256;48.728;9.140;2023-10-09T12:54:41;25.70;79.50
10419;DHT22;5256;48.728;9.140;2023-10-09T12:57:07;25.60;81.20
10419;DHT22;5256;48.728;9.140;2023-10-09T12:59:41;25.70;80.60
10419;DHT22;5256;48.728;9.140;2023-10-09T13:02:15;25.60;77.70
10419;DHT22;5256;48.728;9.140;2023-10-09T13:04:54;25.60;78.30
10419;DHT22;5256;48.728;9.140;2023-10-09T13:07:19;25.60;79.70
10419;DHT22;5256;48.728;9.140;2023-10-09T13:09:47;25.60;79.80
10419;DHT22;5256;48.728;9.140;2023-10-09T13:12:36;25.40;80.00
10419;DHT22;5256;48.728;9.140;2023-10-09T13:15:10;25.20;81.50
10419;DHT22;5256;48.728;9.140;2023-10-09T13:17:39;24.90;79.90
10419;DHT22;5256;48.728;9.140;2023-10-09T13:20:05;24.80;82.00
10419;DHT22;5256;48.728;9.140;2023-10-09T13:22:52;24.80;81.40
10419;DHT22;5256;48.728;9.140;2023-10-09T13:25:18;24.70;74.90
10419;DHT22;5256;48.728;9.140;2023-10-09T13:27:50;24.60;72.00
10419;DHT22;5256;48.728;9.140;2023-10-09T13:30:19;24.40;73.40
10419;DHT22;5256;48.728;9.140;2023-10-09T13:32:51;24.40;74.20
10419;DHT22;5256;48.728;9.140;2023-10-09T13:35:20;24.40;72.20
10419;DHT22;5256;48.728;9.140;2023-10-09T13:37:53;24.50;73.30
10419;DHT22;5256;48.728;9.140;2023-10-09T13:40:22;24.50;72.90
10419;DHT22;5256;48.728;9.140;2023-10-09T13:42:54;24.60;70.40
10419;DHT22;5256;48.728;9.140;2023-10-09T13:45:27;24.60;71.50
10419;DHT22;5256;48.728;9.140;2023-10-09T13:47:56;24.60;73.90
10419;DHT22;5256;48.728;9.140;2023-10-09T13:50:25;24.70;73.10
10419;DHT22;5256;48.728;9.140;2023-10-09T13:52:55;24.80;72.50
10419;DHT22;5256;48.728;9.140;2023-10-09T13:55:21;24.80;71.30
10419;DHT22;5256;48.728;9.140;2023-10-09T13:57:47;25.00;75.10
10419;DHT22;5256;48.728;9.140;2023-10-09T14:00:14;25.10;73.20
10419;DHT22;5256;48.728;9.140;2023-10-09T14:02:43;25.20;72.10
10419;DHT22;5256;48.728;9.140;2023-10-09T14:05:09;25.30;69.80
10419;DHT22;5256;48.728;9.140;2023-10-09T14:07:35;25.40;70.70
10419;DHT22;5256;48.728;9.140;2023-10-09T14:10:00;25.50;67.10
10419;DHT22;5256;48.728;9.140;2023-10-09T14:12:32;25.50;65.10
10419;DHT22;5256;48.728;9.140;2023-10-09T14:14:59;25.50;64.90
10419;DHT22;5256;48.728;9.140;2023-10-09T14:17:28;25.60;67.20
10419;DHT22;5256;48.728;9.140;2023-10-09T14:19:55;25.50;68.00
10419;DHT22;5256;48.728;9.140;2023-10-09T14:22:26;25.50;70.30
10419;DHT22;5256;48.728;9.140;2023-10-09T14:24:52;25.50;70.70
10419;DHT22;5256;48.728;9.140;2023-10-09T14:27:23;25.50;70.90
10419;DHT22;5256;48.728;9.140;2023-10-09T14:29:52;25.50;71.60
10419;DHT22;5256;48.728;9.140;2023-10-09T14:32:21;25.50;71.20
10419;DHT22;5256;48.728;9.140;2023-10-09T14:34:52;25.50;70.30
10419;DHT22;5256;48.728;9.140;2023-10-09T14:37:20;25.50;71.70
10419;DHT22;5256;48.728;9.140;2023-10-09T14:39:46;25.50;71.20
10419;DHT22;5256;48.728;9.140;2023-10-09T14:42:14;25.50;70.90
10419;DHT22;5256;48.728;9.140;2023-10-09T14:44:41;25.40;67.50
10419;DHT22;5256;48.728;9.140;2023-10-09T14:47:07;25.30;65.50
10419;DHT22;5256;48.728;9.140;2023-10-09T14:49:36;25.20;65.40
10419;DHT22;5256;48.728;9.140;2023-10-09T14:52:09;25.10;67.70
10419;DHT22;5256;48.728;9.140;2023-10-09T14:54:38;25.00;69.30
10419;DHT22;5256;48.728;9.140;2023-10-09T14:57:04;25.00;68.20
10419;DHT22;5256;48.728;9.140;2023-10-09T14:59:32;24.90;67.50
10419;DHT22;5256;48.728;9.140;2023-10-09T15:01:58;24.90;67.40
10419;DHT22;5256;48.728;9.140;2023-10-09T15:04:24;24.80;70.10
10419;DHT22;5256;48.728;9.140;2023-10-09T15:06:51;24.80;68.30
10419;DHT22;5256;48.728;9.140;2023-10-09T15:09:17;24.80;69.20
10419;DHT22;5256;48.728;9.140;2023-10-09T15:11:54;24.80;68.90
10419;DHT22;5256;48.728;9.140;2023-10-09T15:14:19;24.90;69.90
10419;DHT22;5256;48.728;9.140;2023-10-09T15:16:45;24.90;70.90
10419;DHT22;5256;48.728;9.140;2023-10-09T15:19:11;25.00;70.40
10419;DHT22;5256;48.728;9.140;2023-10-09T15:21:38;25.00;70.50
10419;DHT22;5256;48.728;9.140;2023-10-09T15:24:13;24.90;71.20
10419;DHT22;5256;48.728;9.140;2023-10-09T15:26:47;24.80;72.10
10419;DHT22;5256;48.728;9.140;2023-10-09T15:29:20;24.60;72.70
10419;DHT22;5256;48.728;9.140;2023-10-09T15:31:54;24.50;74.40
10419;DHT22;5256;48.728;9.140;2023-10-09T15:34:20;24.20;75.70
10419;DHT22;5256;48.728;9.140;2023-10-09T15:36:47;24.00;76.50
10419;DHT22;5256;48.728;9.140;2023-10-09T15:39:16;23.60;78.00
10419;DHT22;5256;48.728;9.140;2023-10-09T15:41:45;23.50;80.00
10419;DHT22;5256;48.728;9.140;2023-10-09T15:44:12;23.50;80.20
10419;DHT22;5256;48.728;9.140;2023-10-09T15:46:39;23.50;79.60
10419;DHT22;5256;48.728;9.140;2023-10-09T15:49:04;23.30;81.50
10419;DHT22;5256;48.728;9.140;2023-10-09T15:51:32;23.10;82.50
10419;DHT22;5256;48.728;9.140;2023-10-09T15:53:58;22.90;83.60
10419;DHT22;5256;48.728;9.140;2023-10-09T15:56:24;22.70;84.10
10419;DHT22;5256;48.728;9.140;2023-10-09T15:58:49;22.60;85.50
10419;DHT22;5256;48.728;9.140;2023-10-09T16:01:16;22.50;86.90
10419;DHT22;5256;48.728;9.140;2023-10-09T16:03:46;22.30;86.90
10419;DHT22;5256;48.728;9.140;2023-10-09T16:06:19;22.10;87.40
10419;DHT22;5256;48.728;9.140;2023-10-09T16:08:48;22.00;87.90
10419;DHT22;5256;48.728;9.140;2023-10-09T16:11:21;21.90;88.20
10419;DHT22;5256;48.728;9.140;2023-10-09T16:13:50;21.90;88.00
10419;DHT22;5256;48.728;9.140;2023-10-09T16:16:29;21.80;88.20
10419;DHT22;5256;48.728;9.140;2023-10-09T16:18:55;21.80;87.50
10419;DHT22;5256;48.728;9.140;2023-10-09T16:21:24;21.80;88.10
10419;DHT22;5256;48.728;9.140;2023-10-09T16:23:51;21.70;88.10
10419;DHT22;5256;48.728;9.140;2023-10-09T16:26:16;21.60;88.60
10419;DHT22;5256;48.728;9.140;2023-10-09T16:28:43;21.50;88.80
10419;DHT22;5256;48.728;9.140;2023-10-09T16:31:09;21.30;89.30
10419;DHT22;5256;48.728;9.140;2023-10-09T16:33:44;21.10;89.30
10419;DHT22;5256;48.728;9.140;2023-10-09T16:36:11;21.00;90.00
10419;DHT22;5256;48.728;9.140;2023-10-09T16:38:36;20.70;90.10
10419;DHT22;5256;48.728;9.140;2023-10-09T16:41:05;20.50;90.60
10419;DHT22;5256;48.728;9.140;2023-10-09T16:43:35;20.20;90.90
10419;DHT22;5256;48.728;9.140;2023-10-09T16:46:03;19.90;91.30
10419;DHT22;5256;48.728;9.140;2023-10-09T16:48:34;19.70;91.80